Aérodrome :
LOGIN :

S'inscrire | Disclaimer

   EN    FR    IT 

 










Légende :    VFR   VFR Marginal   IFR   IFR Intensif   IFR Très Intensif
Visi : 
Plafond : 
>= 8 km
>= 3000ft
5 à 8 km
1000 à 3000 ft
1500m à 5 km
500 à 1000 ft
800 à 1500m
200 à 500 ft
< 800m
< 200 ft
Symboles :   Orages  Brouillard  Fortes neiges  Fortes précipitations  Vent > 20 kt
SIGMETs :   Divers  Orages  Givrage  Turbulence  Onde Orograph.  Cendres Volcan.






- Altitude de l'aérodrome : 256 ft
- Code IATA : KUN


EYKA - Kaunas

DERNIER METAR :
  • 272350Z AUTO 24012KT 9999 -UP OVC043/// 01/M05 Q0997

METARs EXPIRÉS :
  • 272320Z AUTO 24012KT 9999 -RASN SCT032/// OVC041/// 01/M05 Q0996
  • 272250Z 24010KT 200V260 9999 BKN035 OVC047 01/M05 Q0996 R08/190095
  • 272220Z 24011KT 9999 OVC031 01/M05 Q0996 R08/190095
  • 272150Z 24010KT 9999 SCT030 BKN048 01/M05 Q0996 R08/190095
  • 272120Z 24012KT 9999 SCT032 OVC052 01/M05 Q0996 R08/190095

TAF TAF EYKA
Valide du 28 à 00h jusqu'au 29 à 00h UTC


272300Z 2800/2824 25012KT 9000 BKN025
TEMPO 2806/2815 3000 SHSNRA BKN005 BKN15CB
BECMG 2818/2819 19008KT
TEMPO 2822/2824 3000 SHSNRA BKN005 BKN015CB



MET'MAP, la Météo Aéronautique d'un coup d'oeil ! - Copyright ORBIFLY Décembre 2007 - Disclaimer

ORBIFLY MET'MAP TEAM :

Programmation & Développement : Alexandra Zaïnal
Sur une idée originale de : Baudouin d'Aumeries
Assistance à la programmation : Marc-Olivier Méhu
Soutien technique & logistique : Manuel Goepfert

Contact : metmap@orbifly.com




SOURCES & CREDITS :

   NOAA